Airfield :
LOGIN :

Register | Disclaimer

   EN    FR    IT 

 










Legend :    VFR   Marginal VFR   IFR   Intensive IFR   Very Intensive IFR
Visi :
Ceiling :
>= 8 km
>= 3000ft
5 to 8 km
1000 to 3000 ft
1500m to 5 km
500 to 1000 ft
800 to 1500m
200 to 500 ft
< 800m
< 200 ft
Symbols :   Thunderstorms  Fog  Heavy snow  Heavy precipitations  Wind > 20 kt
SIGMETs :     Misc.  Thunderstorms  Icing  Turbulence  Mountain Waves  Volcanic Ashes






- Airport Elevation : 614 ft
- IATA code : CRL


EBCI - Charleroi

CURRENT METAR :
  • 130650Z 25016KT 6000 -RADZ SCT007 BKN009 06/04 Q0972 TEMPO 4000 RADZ BR BKN007

EXPIRED METARs :
  • 130620Z 22015KT 6000 -RADZ SCT007 BKN009 06/05 Q0971 TEMPO 4000 RADZ BR BKN007
  • 130550Z 22014KT 9999 -RADZ SCT007 BKN009 06/04 Q0971 NOSIG
  • 130520Z 22014KT 9999 -RADZ SCT007 BKN009 06/04 Q0971 NOSIG
  • 130450Z 20013KT 9999 -RADZ SCT007 BKN009 06/05 Q0971 NOSIG
  • 130420Z 18008KT 7000 -RA SCT007 BKN009 05/04 Q0972 NOSIG

TAF TAF EBCI
Valid from the 13 at 06:00 until the 14 at 12:00 UTC


130500Z 1306/1412 25013KT 9999 SCT010 BKN018
TEMPO 1306/1315 4000 RA SHRA BKN007 BKN012CB
TEMPO 1306/1310 26015G25KT
TEMPO 1310/1315 28020G32KT
PROB30
TEMPO 1315/1320 26015G25KT 4500 SHRA
PROB40
TEMPO 1402/1407 24015G25KT 4500 SHRA RA BKN014



MET'MAP, your aeronautical weather chart ! - Copyright ORBIFLY December 2007 - Disclaimer

ORBIFLY MET'MAP TEAM :

Programming & Development : Alexandra Zaïnal
Concept & original design : Baudouin d'Aumeries
Assistance for programming : Marc-Olivier Méhu
Technical & hardware support : Manuel Goepfert

Contact : metmap@orbifly.com




SOURCES & CREDITS :

   NOAA